Time;durP1;ratioP1;P1;durP2;ratioP2;P2;SDS_P1;SDS_P2;PMS_P1;PMS_P2;Temp;Humidity;BMP_temperature;BMP_pressure;BME280_temperature;BME280_humidity;BME280_pressure;Samples;Min_cycle;Max_cycle;Signal;HPM_P1;HPM_P2
2022/05/11 00:01:41;;;;;;;;;;;;;;;;;;5074055;28;20022;-67
2022/05/11 00:04:07;;;;;;;;;;;;;;;;;;5069004;28;20384;-67
2022/05/11 00:06:33;;;;;;;;;;;;;;;;;;5093537;28;20007;-67
2022/05/11 00:08:59;;;;;;;;;;;;;;;;;;5094130;28;20318;-67
2022/05/11 00:11:26;;;;;;;;;;;;;;;;;;5093416;28;19908;-67
2022/05/11 00:13:52;;;;;;;;;;;;;;;;;;5093901;28;19915;-67
2022/05/11 00:16:17;;;;;;;;;;;;;;;;;;5076575;28;19924;-67
2022/05/11 00:18:43;;;;;;;;;;;;;;;;;;5073639;28;20383;-67
2022/05/11 00:21:09;;;;;;;;;;;;;;;;;;5073577;28;19909;-67
2022/05/11 00:23:35;;;;;;;;;;;;;;;;;;5073573;28;19909;-67
2022/05/11 00:26:01;;;;;;;;;;;;;;;;;;5073044;28;20494;-67
2022/05/11 00:28:27;;;;;;;;;;;;;;;;;;5072815;28;19912;-67
2022/05/11 00:30:53;;;;;;;;;;;;;;;;;;5073218;28;20007;-67
2022/05/11 00:33:19;;;;;;;;;;;;;;;;;;5072706;28;19915;-67
2022/05/11 00:35:45;;;;;;;;;;;;;;;;;;5073289;28;19943;-67
2022/05/11 00:38:11;;;;;;;;;;;;;;;;;;5073441;28;19962;-67
2022/05/11 00:40:36;;;;;;;;;;;;;;;;;;5073614;28;20340;-67
2022/05/11 00:43:02;;;;;;;;;;;;;;;;;;5058892;28;19988;-67
2022/05/11 00:45:28;;;;;;;;;;;;;;;;;;5052804;28;19939;-67
2022/05/11 00:47:54;;;;;;;;;;;;;;;;;;5053135;28;20018;-67
2022/05/11 00:50:20;;;;;;;;;;;;;;;;;;5052615;28;19963;-67
2022/05/11 00:52:46;;;;;;;;;;;;;;;;;;5053074;28;20361;-67
2022/05/11 00:55:12;;;;;;;;;;;;;;;;;;5052949;28;19932;-75
2022/05/11 00:57:38;;;;;;;;;;;;;;;;;;5035229;28;19920;-67
2022/05/11 01:00:03;;;;;;;;;;;;;;;;;;5053057;28;20268;-67
2022/05/11 01:02:29;;;;;;;;;;;;;;;;;;5052385;28;19913;-67
2022/05/11 01:04:55;;;;;;;;;;;;;;;;;;5052843;28;19916;-67
2022/05/11 01:07:21;;;;;;;;;;;;;;;;;;5052306;28;20294;-67
2022/05/11 01:09:47;;;;;;;;;;;;;;;;;;5052928;28;19912;-68
2022/05/11 01:12:13;;;;;;;;;;;;;;;;;;5052666;28;19908;-75
2022/05/11 01:14:40;;;;;;;;;;;;;;;;;;5055525;28;19920;-67
2022/05/11 01:17:06;;;;;;;;;;;;;;;;;;5072981;28;19912;-67
2022/05/11 01:19:32;;;;;;;;;;;;;;;;;;5072052;28;20019;-67
2022/05/11 01:21:58;;;;;;;;;;;;;;;;;;5072818;28;19912;-67
2022/05/11 01:24:24;;;;;;;;;;;;;;;;;;5072252;28;19999;-67
2022/05/11 01:26:50;;;;;;;;;;;;;;;;;;5073087;28;20003;-67
2022/05/11 01:29:16;;;;;;;;;;;;;;;;;;5072166;28;19912;-68
2022/05/11 01:31:42;;;;;;;;;;;;;;;;;;5072577;28;20285;-67
2022/05/11 01:34:08;;;;;;;;;;;;;;;;;;5072669;28;20043;-67
2022/05/11 01:36:34;;;;;;;;;;;;;;;;;;5054610;28;19928;-67
2022/05/11 01:39:00;;;;;;;;;;;;;;;;;;5076811;28;19909;-67
2022/05/11 01:41:26;;;;;;;;;;;;;;;;;;5058115;28;19908;-67
2022/05/11 01:43:51;;;;;;;;;;;;;;;;;;5076675;28;19908;-67
2022/05/11 01:46:17;;;;;;;;;;;;;;;;;;5076068;28;20005;-68
2022/05/11 01:48:43;;;;;;;;;;;;;;;;;;5076508;28;19913;-68
2022/05/11 01:51:09;;;;;;;;;;;;;;;;;;5076408;28;19909;-67
2022/05/11 01:53:35;;;;;;;;;;;;;;;;;;5075815;28;19935;-67
2022/05/11 01:56:01;;;;;;;;;;;;;;;;;;5076313;28;20340;-67
2022/05/11 01:58:27;;;;;;;;;;;;;;;;;;5076049;28;19913;-67
2022/05/11 02:00:53;;;;;;;;;;;;;;;;;;5076269;28;19909;-67
2022/05/11 02:03:20;;;;;;;;;;;;;;;;;;5075554;28;19944;-67
2022/05/11 02:08:31;;;;;;;;;;;;;;;;;;5075334;28;19916;-67
2022/05/11 02:10:56;;;;;;;;;;;;;;;;;;5058138;28;19908;-67
2022/05/11 02:13:22;;;;;;;;;;;;;;;;;;5075403;28;20353;-67
2022/05/11 02:15:50;;;;;;;;;;;;;;;;;;5075918;28;19946;-67
2022/05/11 02:18:16;;;;;;;;;;;;;;;;;;5058108;28;20272;-67
2022/05/11 02:20:42;;;;;;;;;;;;;;;;;;5075372;28;19915;-67
2022/05/11 02:23:08;;;;;;;;;;;;;;;;;;5075876;28;20366;-67
2022/05/11 02:25:34;;;;;;;;;;;;;;;;;;5075270;28;19919;-67
2022/05/11 02:28:00;;;;;;;;;;;;;;;;;;5075830;28;20357;-67
2022/05/11 02:30:25;;;;;;;;;;;;;;;;;;5075020;28;20012;-67
2022/05/11 02:32:51;;;;;;;;;;;;;;;;;;5075631;28;20340;-67
2022/05/11 02:35:17;;;;;;;;;;;;;;;;;;5075450;28;19927;-67
2022/05/11 02:37:43;;;;;;;;;;;;;;;;;;5057052;28;19915;-67
2022/05/11 02:40:09;;;;;;;;;;;;;;;;;;5075537;28;19930;-67
2022/05/11 02:42:35;;;;;;;;;;;;;;;;;;5074915;28;19908;-67
2022/05/11 02:45:01;;;;;;;;;;;;;;;;;;5075407;28;19920;-67
2022/05/11 02:47:27;;;;;;;;;;;;;;;;;;5074343;28;19916;-67
2022/05/11 02:49:53;;;;;;;;;;;;;;;;;;5075192;28;20328;-67
2022/05/11 02:52:19;;;;;;;;;;;;;;;;;;5075264;28;19913;-67
2022/05/11 02:54:46;;;;;;;;;;;;;;;;;;5074919;28;20353;-67
2022/05/11 02:57:12;;;;;;;;;;;;;;;;;;5075257;28;19913;-67
2022/05/11 02:59:38;;;;;;;;;;;;;;;;;;5074573;28;20284;-67
2022/05/11 03:02:04;;;;;;;;;;;;;;;;;;5074872;28;19909;-67
2022/05/11 03:04:30;;;;;;;;;;;;;;;;;;5074410;28;19915;-67
2022/05/11 03:06:56;;;;;;;;;;;;;;;;;;5074810;28;20356;-67
2022/05/11 03:09:22;;;;;;;;;;;;;;;;;;5074466;28;19909;-68
2022/05/11 03:11:48;;;;;;;;;;;;;;;;;;5057091;28;19919;-67
2022/05/11 03:14:14;;;;;;;;;;;;;;;;;;5074842;28;19915;-68
2022/05/11 03:16:40;;;;;;;;;;;;;;;;;;5073813;28;20288;-67
2022/05/11 03:19:06;;;;;;;;;;;;;;;;;;5056834;28;19916;-67
2022/05/11 03:21:32;;;;;;;;;;;;;;;;;;5073931;28;19908;-67
2022/05/11 03:23:58;;;;;;;;;;;;;;;;;;5074842;28;19912;-67
2022/05/11 03:26:24;;;;;;;;;;;;;;;;;;5074174;28;19916;-67
2022/05/11 03:28:49;;;;;;;;;;;;;;;;;;5056708;28;19909;-67
2022/05/11 03:31:15;;;;;;;;;;;;;;;;;;5074609;28;19915;-67
2022/05/11 03:36:26;;;;;;;;;;;;;;;;;;5073658;28;20030;-67
2022/05/11 03:38:52;;;;;;;;;;;;;;;;;;5074481;28;20344;-67
2022/05/11 03:41:18;;;;;;;;;;;;;;;;;;5056467;28;19966;-67
2022/05/11 03:43:44;;;;;;;;;;;;;;;;;;5073461;28;19970;-67
2022/05/11 03:46:10;;;;;;;;;;;;;;;;;;5072666;28;19913;-67
2022/05/11 03:48:37;;;;;;;;;;;;;;;;;;5053394;28;19916;-67
2022/05/11 03:51:03;;;;;;;;;;;;;;;;;;5036497;28;19908;-67
2022/05/11 03:53:29;;;;;;;;;;;;;;;;;;5053576;28;19943;-67
2022/05/11 03:55:55;;;;;;;;;;;;;;;;;;5054032;28;20015;-67
2022/05/11 03:58:21;;;;;;;;;;;;;;;;;;5054093;28;19909;-67
2022/05/11 04:00:46;;;;;;;;;;;;;;;;;;5052883;28;19909;-67
2022/05/11 04:03:12;;;;;;;;;;;;;;;;;;5054207;28;20257;-67
2022/05/11 04:05:38;;;;;;;;;;;;;;;;;;5053352;28;19912;-67
2022/05/11 04:08:04;;;;;;;;;;;;;;;;;;5054272;28;20350;-67
2022/05/11 04:10:30;;;;;;;;;;;;;;;;;;5053299;28;19962;-67
2022/05/11 04:12:56;;;;;;;;;;;;;;;;;;5053489;28;19923;-67
2022/05/11 04:15:22;;;;;;;;;;;;;;;;;;5061942;28;20289;-68
2022/05/11 04:17:48;;;;;;;;;;;;;;;;;;5073104;28;20284;-67
2022/05/11 04:20:13;;;;;;;;;;;;;;;;;;5055770;28;19954;-67
2022/05/11 04:22:39;;;;;;;;;;;;;;;;;;5055153;28;19909;-67
2022/05/11 04:25:05;;;;;;;;;;;;;;;;;;5073620;28;19912;-67
2022/05/11 04:27:31;;;;;;;;;;;;;;;;;;5072909;28;20012;-67
2022/05/11 04:29:57;;;;;;;;;;;;;;;;;;5073491;28;20436;-67
2022/05/11 04:32:23;;;;;;;;;;;;;;;;;;5073475;28;19909;-67
2022/05/11 04:34:50;;;;;;;;;;;;;;;;;;5072605;28;19916;-67
2022/05/11 04:37:16;;;;;;;;;;;;;;;;;;5064409;28;19913;-67
2022/05/11 04:39:42;;;;;;;;;;;;;;;;;;5061199;28;19962;-67
2022/05/11 04:42:08;;;;;;;;;;;;;;;;;;5051235;28;19916;-67
2022/05/11 04:44:34;;;;;;;;;;;;;;;;;;5072377;28;19978;-67
2022/05/11 04:46:59;;;;;;;;;;;;;;;;;;5070339;28;19916;-67
2022/05/11 04:49:25;;;;;;;;;;;;;;;;;;5072542;28;19912;-67
2022/05/11 04:51:52;;;;;;;;;;;;;;;;;;5054748;28;20307;-67
2022/05/11 04:54:18;;;;;;;;;;;;;;;;;;5073201;28;20425;-67
2022/05/11 04:56:43;;;;;;;;;;;;;;;;;;5072436;28;19916;-67
2022/05/11 04:59:10;;;;;;;;;;;;;;;;;;5073119;28;20308;-67
2022/05/11 05:01:35;;;;;;;;;;;;;;;;;;5072402;28;19935;-68
2022/05/11 05:04:01;;;;;;;;;;;;;;;;;;5073154;28;19908;-67
2022/05/11 05:06:28;;;;;;;;;;;;;;;;;;5071672;28;19956;-70
2022/05/11 05:08:55;;;;;;;;;;;;;;;;;;5080114;28;20011;-67
2022/05/11 05:11:20;;;;;;;;;;;;;;;;;;5074812;28;19934;-67
2022/05/11 05:13:46;;;;;;;;;;;;;;;;;;5092786;28;19904;-67
2022/05/11 05:16:12;;;;;;;;;;;;;;;;;;5088348;28;19923;-67
2022/05/11 05:18:38;;;;;;;;;;;;;;;;;;5092048;28;19908;-68
2022/05/11 05:21:04;;;;;;;;;;;;;;;;;;5092552;28;19949;-67
2022/05/11 05:23:30;;;;;;;;;;;;;;;;;;5091605;28;20286;-73
2022/05/11 05:25:56;;;;;;;;;;;;;;;;;;5092132;28;19908;-67
2022/05/11 05:31:06;;;;;;;;;;;;;;;;;;5092432;28;20041;-67
2022/05/11 05:33:32;;;;;;;;;;;;;;;;;;5091354;28;19908;-73
2022/05/11 05:35:58;;;;;;;;;;;;;;;;;;5073770;28;19917;-67
2022/05/11 05:38:24;;;;;;;;;;;;;;;;;;5092154;28;19931;-68
2022/05/11 05:40:50;;;;;;;;;;;;;;;;;;5091608;28;19916;-67
2022/05/11 05:43:16;;;;;;;;;;;;;;;;;;5092751;28;19946;-67
2022/05/11 05:45:42;;;;;;;;;;;;;;;;;;5090378;28;20019;-67
2022/05/11 05:48:08;;;;;;;;;;;;;;;;;;5092484;28;19917;-67
2022/05/11 05:50:34;;;;;;;;;;;;;;;;;;5091636;28;19912;-72
2022/05/11 05:52:59;;;;;;;;;;;;;;;;;;5091907;28;19954;-67
2022/05/11 05:55:25;;;;;;;;;;;;;;;;;;5092276;28;20393;-66
2022/05/11 05:57:51;;;;;;;;;;;;;;;;;;5081225;28;19921;-66
2022/05/11 06:00:17;;;;;;;;;;;;;;;;;;5072453;28;20352;-66
2022/05/11 06:02:43;;;;;;;;;;;;;;;;;;5090121;28;19909;-67
2022/05/11 06:05:09;;;;;;;;;;;;;;;;;;5069645;28;19957;-66
2022/05/11 06:07:35;;;;;;;;;;;;;;;;;;5090265;28;19908;-72
2022/05/11 06:10:01;;;;;;;;;;;;;;;;;;5091637;28;19909;-67
2022/05/11 06:12:27;;;;;;;;;;;;;;;;;;5094305;28;19923;-69
2022/05/11 06:14:53;;;;;;;;;;;;;;;;;;5077694;28;20015;-67
2022/05/11 06:17:19;;;;;;;;;;;;;;;;;;5085675;28;19923;-68
2022/05/11 06:19:44;;;;;;;;;;;;;;;;;;5072862;28;20280;-67
2022/05/11 06:22:10;;;;;;;;;;;;;;;;;;5081399;28;19916;-67
2022/05/11 06:24:36;;;;;;;;;;;;;;;;;;5083474;28;19973;-65
2022/05/11 06:27:03;;;;;;;;;;;;;;;;;;5085535;28;19930;-65
2022/05/11 06:29:28;;;;;;;;;;;;;;;;;;5081947;28;20319;-67
2022/05/11 06:31:54;;;;;;;;;;;;;;;;;;5077473;28;19958;-66
2022/05/11 06:34:20;;;;;;;;;;;;;;;;;;5093425;28;19908;-69
2022/05/11 06:36:46;;;;;;;;;;;;;;;;;;5089228;28;19909;-68
2022/05/11 06:39:12;;;;;;;;;;;;;;;;;;5083846;28;19912;-69
2022/05/11 06:41:38;;;;;;;;;;;;;;;;;;5086946;28;20264;-69
2022/05/11 06:44:04;;;;;;;;;;;;;;;;;;5084954;28;20038;-69
2022/05/11 06:46:31;;;;;;;;;;;;;;;;;;5094854;28;19904;-69
2022/05/11 06:48:57;;;;;;;;;;;;;;;;;;5075220;28;19916;-69
2022/05/11 06:51:23;;;;;;;;;;;;;;;;;;5077554;28;20263;-68
2022/05/11 06:59:21;;;;;;;;;;;;;;;;;;5075066;28;20050;-69
2022/05/11 07:01:47;;;;;;;;;;;;;;;;;;5074569;28;20337;-69
2022/05/11 07:04:13;;;;;;;;;;;;;;;;;;5074816;28;19912;-68
2022/05/11 07:06:39;;;;;;;;;;;;;;;;;;5074447;28;19904;-69
2022/05/11 07:09:05;;;;;;;;;;;;;;;;;;5074797;28;19909;-68
2022/05/11 07:14:15;;;;;;;;;;;;;;;;;;5074484;28;19911;-68
2022/05/11 07:16:42;;;;;;;;;;;;;;;;;;5074736;28;20018;-68
2022/05/11 07:19:08;;;;;;;;;;;;;;;;;;5095229;28;19909;-68
2022/05/11 07:21:34;;;;;;;;;;;;;;;;;;5095135;28;19908;-68
2022/05/11 07:24:00;;;;;;;;;;;;;;;;;;5094778;28;19904;-68
2022/05/11 07:26:26;;;;;;;;;;;;;;;;;;5095055;28;19950;-68
2022/05/11 07:28:51;;;;;;;;;;;;;;;;;;5094350;28;19954;-68
2022/05/11 07:31:17;;;;;;;;;;;;;;;;;;5076914;28;19912;-68
2022/05/11 07:33:44;;;;;;;;;;;;;;;;;;5094324;28;19991;-68
2022/05/11 07:36:10;;;;;;;;;;;;;;;;;;5094413;28;19912;-68
2022/05/11 07:38:38;;;;;;;;;;;;;;;;;;5094564;28;20041;-77
2022/05/11 07:41:04;;;;;;;;;;;;;;;;;;5094777;28;19904;-68
2022/05/11 07:43:30;;;;;;;;;;;;;;;;;;5094782;28;19904;-68
2022/05/11 07:45:56;;;;;;;;;;;;;;;;;;5094196;28;19908;-69
2022/05/11 07:48:22;;;;;;;;;;;;;;;;;;5094508;28;19908;-68
2022/05/11 07:50:48;;;;;;;;;;;;;;;;;;5093936;28;19908;-68
2022/05/11 07:53:14;;;;;;;;;;;;;;;;;;5094566;28;19904;-68
2022/05/11 07:55:40;;;;;;;;;;;;;;;;;;5093778;28;20023;-69
2022/05/11 08:00:50;;;;;;;;;;;;;;;;;;5093625;28;19954;-68
2022/05/11 08:03:16;;;;;;;;;;;;;;;;;;5094197;28;19908;-69
2022/05/11 08:05:42;;;;;;;;;;;;;;;;;;5093672;28;20359;-69
2022/05/11 08:08:08;;;;;;;;;;;;;;;;;;5094273;28;19940;-68
2022/05/11 08:10:34;;;;;;;;;;;;;;;;;;5093914;28;19908;-68
2022/05/11 08:13:06;;;;;;;;;;;;;;;;;;5093526;28;19951;-68
2022/05/11 08:15:32;;;;;;;;;;;;;;;;;;5083748;28;19920;-68
2022/05/11 08:17:58;;;;;;;;;;;;;;;;;;5073157;28;20326;-68
2022/05/11 08:20:23;;;;;;;;;;;;;;;;;;5073470;28;19908;-68
2022/05/11 08:22:51;;;;;;;;;;;;;;;;;;5072023;28;20383;-68
2022/05/11 08:25:17;;;;;;;;;;;;;;;;;;5073130;28;19909;-77
2022/05/11 08:27:43;;;;;;;;;;;;;;;;;;5072903;28;19947;-69
2022/05/11 08:35:38;;;;;;;;;;;;;;;;;;5073143;28;20383;-69
2022/05/11 08:38:04;;;;;;;;;;;;;;;;;;5073380;28;19909;-68
2022/05/11 08:40:30;;;;;;;;;;;;;;;;;;5073717;28;19908;-68
2022/05/11 08:42:56;;;;;;;;;;;;;;;;;;5072656;28;19993;-68
2022/05/11 08:45:22;;;;;;;;;;;;;;;;;;5073024;28;19912;-68
2022/05/11 08:47:48;;;;;;;;;;;;;;;;;;5072980;28;20066;-68
2022/05/11 08:50:14;;;;;;;;;;;;;;;;;;5073372;28;19915;-68
2022/05/11 08:52:40;;;;;;;;;;;;;;;;;;5073086;28;19909;-68
2022/05/11 08:55:06;;;;;;;;;;;;;;;;;;5055185;28;20290;-68
2022/05/11 08:57:32;;;;;;;;;;;;;;;;;;5073218;28;19908;-68
2022/05/11 08:59:58;;;;;;;;;;;;;;;;;;5072417;28;19975;-68
2022/05/11 09:02:24;;;;;;;;;;;;;;;;;;5073052;28;19998;-68
2022/05/11 09:04:49;;;;;;;;;;;;;;;;;;5072467;28;20260;-69
2022/05/11 09:07:15;;;;;;;;;;;;;;;;;;5072977;28;19917;-69
2022/05/11 09:09:41;;;;;;;;;;;;;;;;;;5072708;28;20257;-78
2022/05/11 09:12:08;;;;;;;;;;;;;;;;;;5073032;28;20006;-68
2022/05/11 09:14:34;;;;;;;;;;;;;;;;;;5072468;28;20429;-69
2022/05/11 09:17:00;;;;;;;;;;;;;;;;;;5072237;28;20022;-68
2022/05/11 09:19:26;;;;;;;;;;;;;;;;;;5072868;28;19961;-68
2022/05/11 09:21:52;;;;;;;;;;;;;;;;;;5071955;28;20353;-68
2022/05/11 09:24:18;;;;;;;;;;;;;;;;;;5072433;28;19919;-68
2022/05/11 09:26:46;;;;;;;;;;;;;;;;;;5072178;28;19908;-70
2022/05/11 09:29:12;;;;;;;;;;;;;;;;;;5072753;28;19913;-68
2022/05/11 09:31:39;;;;;;;;;;;;;;;;;;5072813;28;20376;-69
2022/05/11 09:34:05;;;;;;;;;;;;;;;;;;5072101;28;20013;-68
2022/05/11 09:36:30;;;;;;;;;;;;;;;;;;5072695;28;20404;-69
2022/05/11 09:38:56;;;;;;;;;;;;;;;;;;5072449;28;19909;-69
2022/05/11 09:41:22;;;;;;;;;;;;;;;;;;5072658;28;19912;-68
2022/05/11 09:43:52;;;;;;;;;;;;;;;;;;5072069;28;19912;-69
2022/05/11 09:46:18;;;;;;;;;;;;;;;;;;5072234;28;19963;-69
2022/05/11 09:48:44;;;;;;;;;;;;;;;;;;5072173;28;20373;-78
2022/05/11 09:51:10;;;;;;;;;;;;;;;;;;5072684;28;19915;-69
2022/05/11 09:53:36;;;;;;;;;;;;;;;;;;5072634;28;19912;-69
2022/05/11 09:56:02;;;;;;;;;;;;;;;;;;5071955;28;19916;-69
2022/05/11 09:58:28;;;;;;;;;;;;;;;;;;5074463;28;19947;-69
2022/05/11 10:00:54;;;;;;;;;;;;;;;;;;5075553;28;20418;-69
2022/05/11 10:03:20;;;;;;;;;;;;;;;;;;5076301;28;19909;-68
2022/05/11 10:05:49;;;;;;;;;;;;;;;;;;5075767;28;19913;-69
2022/05/11 10:08:15;;;;;;;;;;;;;;;;;;5076636;28;19908;-68
2022/05/11 10:10:41;;;;;;;;;;;;;;;;;;5076238;28;19909;-68
2022/05/11 10:13:07;;;;;;;;;;;;;;;;;;5075450;28;20356;-68
2022/05/11 10:23:46;;;;;;;;;;;;;;;;;;5075028;28;19916;-71
2022/05/11 10:26:12;;;;;;;;;;;;;;;;;;5076028;28;20268;-68
2022/05/11 10:28:38;;;;;;;;;;;;;;;;;;5075822;28;19919;-67
2022/05/11 10:31:05;;;;;;;;;;;;;;;;;;5075163;28;19909;-67
2022/05/11 10:33:31;;;;;;;;;;;;;;;;;;5075753;28;20367;-67
2022/05/11 10:35:57;;;;;;;;;;;;;;;;;;5074951;28;19916;-67
2022/05/11 10:38:23;;;;;;;;;;;;;;;;;;5075729;28;19915;-67
2022/05/11 10:40:48;;;;;;;;;;;;;;;;;;5075032;28;19917;-67
2022/05/11 10:43:14;;;;;;;;;;;;;;;;;;5075554;28;20276;-67
2022/05/11 10:45:41;;;;;;;;;;;;;;;;;;5075184;28;19912;-67
2022/05/11 10:48:08;;;;;;;;;;;;;;;;;;5074891;28;20108;-67
2022/05/11 10:50:34;;;;;;;;;;;;;;;;;;5057748;28;20347;-67
2022/05/11 10:53:00;;;;;;;;;;;;;;;;;;5074800;28;19999;-68
2022/05/11 10:55:26;;;;;;;;;;;;;;;;;;5075300;28;19930;-67
2022/05/11 10:57:52;;;;;;;;;;;;;;;;;;5074621;28;19913;-67
2022/05/11 11:00:18;;;;;;;;;;;;;;;;;;5075257;28;19909;-67
2022/05/11 11:02:44;;;;;;;;;;;;;;;;;;5075165;28;19912;-67
2022/05/11 11:05:10;;;;;;;;;;;;;;;;;;5074559;28;19909;-67
2022/05/11 11:07:36;;;;;;;;;;;;;;;;;;5075131;28;19908;-67
2022/05/11 11:10:03;;;;;;;;;;;;;;;;;;5074148;28;19916;-67
2022/05/11 11:12:29;;;;;;;;;;;;;;;;;;5057280;28;19908;-67
2022/05/11 11:14:55;;;;;;;;;;;;;;;;;;5074308;28;19920;-67
2022/05/11 11:17:21;;;;;;;;;;;;;;;;;;5074788;28;20019;-67
2022/05/11 11:19:47;;;;;;;;;;;;;;;;;;5074962;28;19932;-67
2022/05/11 11:22:13;;;;;;;;;;;;;;;;;;5074228;28;19909;-67
2022/05/11 11:24:42;;;;;;;;;;;;;;;;;;5074708;28;20381;-67
2022/05/11 11:27:08;;;;;;;;;;;;;;;;;;5074232;28;19923;-67
2022/05/11 11:29:34;;;;;;;;;;;;;;;;;;5074757;28;19909;-67
2022/05/11 11:32:00;;;;;;;;;;;;;;;;;;5074101;28;19909;-67
2022/05/11 11:34:27;;;;;;;;;;;;;;;;;;5074652;28;19909;-67
2022/05/11 11:36:53;;;;;;;;;;;;;;;;;;5073916;28;19985;-67
2022/05/11 11:39:19;;;;;;;;;;;;;;;;;;5074500;28;20368;-68
2022/05/11 11:41:45;;;;;;;;;;;;;;;;;;5074489;28;20357;-67
2022/05/11 11:44:11;;;;;;;;;;;;;;;;;;5055773;28;20002;-67
2022/05/11 11:46:38;;;;;;;;;;;;;;;;;;5074566;28;19912;-67
2022/05/11 11:49:04;;;;;;;;;;;;;;;;;;5073699;28;19935;-67
2022/05/11 11:51:30;;;;;;;;;;;;;;;;;;5074297;28;20356;-67
2022/05/11 11:53:56;;;;;;;;;;;;;;;;;;5071363;28;20268;-67
2022/05/11 11:56:22;;;;;;;;;;;;;;;;;;5054215;28;20387;-67
2022/05/11 11:58:48;;;;;;;;;;;;;;;;;;5054158;28;19913;-67
2022/05/11 12:01:15;;;;;;;;;;;;;;;;;;5053587;28;20007;-67
2022/05/11 12:03:41;;;;;;;;;;;;;;;;;;5036254;28;19908;-67
2022/05/11 12:15:03;;;;;;;;;;;;;;;;;;5053459;28;20340;-67
2022/05/11 12:17:12;;;;;;;;;;;;;;;;;;5064443;28;19920;-67
2022/05/11 12:19:37;;;;;;;;;;;;;;;;;;5073712;28;20007;-67
2022/05/11 12:22:03;;;;;;;;;;;;;;;;;;5072533;28;19943;-67
2022/05/11 12:24:29;;;;;;;;;;;;;;;;;;5055584;28;19932;-67
2022/05/11 12:26:55;;;;;;;;;;;;;;;;;;5072994;28;19966;-67
2022/05/11 12:32:09;;;;;;;;;;;;;;;;;;5073351;28;19963;-67
2022/05/11 12:34:34;;;;;;;;;;;;;;;;;;5073873;28;19913;-67
2022/05/11 12:37:00;;;;;;;;;;;;;;;;;;5072396;28;20276;-68
2022/05/11 12:39:26;;;;;;;;;;;;;;;;;;5073589;28;20023;-67
2022/05/11 12:41:52;;;;;;;;;;;;;;;;;;5068180;28;20292;-69
2022/05/11 12:44:18;;;;;;;;;;;;;;;;;;5069456;28;19917;-67
2022/05/11 12:46:44;;;;;;;;;;;;;;;;;;5073241;28;20438;-67
2022/05/11 12:49:10;;;;;;;;;;;;;;;;;;5072320;28;19941;-67
2022/05/11 12:51:36;;;;;;;;;;;;;;;;;;5073232;28;20369;-67
2022/05/11 12:54:01;;;;;;;;;;;;;;;;;;5072583;28;19961;-67
2022/05/11 12:56:27;;;;;;;;;;;;;;;;;;5073069;28;20416;-67
2022/05/11 12:58:53;;;;;;;;;;;;;;;;;;5073089;28;19909;-67
2022/05/11 13:01:21;;;;;;;;;;;;;;;;;;5072096;28;19915;-67
2022/05/11 13:03:47;;;;;;;;;;;;;;;;;;5073013;28;20311;-69
2022/05/11 13:06:13;;;;;;;;;;;;;;;;;;5072339;28;19908;-67
2022/05/11 13:08:39;;;;;;;;;;;;;;;;;;5073008;28;19962;-67
2022/05/11 13:11:05;;;;;;;;;;;;;;;;;;5054369;28;20349;-68
2022/05/11 13:13:31;;;;;;;;;;;;;;;;;;5072951;28;19909;-67
2022/05/11 13:15:57;;;;;;;;;;;;;;;;;;5071894;28;20279;-68
2022/05/11 13:18:23;;;;;;;;;;;;;;;;;;5072898;28;20042;-67
2022/05/11 13:20:49;;;;;;;;;;;;;;;;;;5072945;28;19909;-67
2022/05/11 13:23:15;;;;;;;;;;;;;;;;;;5072197;28;19909;-68
2022/05/11 13:25:41;;;;;;;;;;;;;;;;;;5072830;28;19909;-69
2022/05/11 13:28:07;;;;;;;;;;;;;;;;;;5071767;28;19931;-68
2022/05/11 13:30:34;;;;;;;;;;;;;;;;;;5072597;28;19995;-69
2022/05/11 13:32:59;;;;;;;;;;;;;;;;;;5075234;28;20046;-68
2022/05/11 13:35:25;;;;;;;;;;;;;;;;;;5076757;28;20018;-67
2022/05/11 13:37:51;;;;;;;;;;;;;;;;;;5076881;28;19908;-67
2022/05/11 13:40:17;;;;;;;;;;;;;;;;;;5075857;28;19913;-67
2022/05/11 13:42:43;;;;;;;;;;;;;;;;;;5076743;28;19908;-67
2022/05/11 13:45:09;;;;;;;;;;;;;;;;;;5076309;28;19912;-67
2022/05/11 13:50:19;;;;;;;;;;;;;;;;;;5075783;28;19915;-67
2022/05/11 13:52:45;;;;;;;;;;;;;;;;;;5076434;28;19930;-67
2022/05/11 13:55:11;;;;;;;;;;;;;;;;;;5075915;28;19951;-67
2022/05/11 13:57:37;;;;;;;;;;;;;;;;;;5076459;28;20056;-67
2022/05/11 14:00:03;;;;;;;;;;;;;;;;;;5075699;28;19909;-68
2022/05/11 14:02:29;;;;;;;;;;;;;;;;;;5076435;28;20371;-67
2022/05/11 14:04:54;;;;;;;;;;;;;;;;;;5058493;28;19915;-67
2022/05/11 14:07:20;;;;;;;;;;;;;;;;;;5075774;28;19909;-67
2022/05/11 14:09:46;;;;;;;;;;;;;;;;;;5076242;28;19971;-67
2022/05/11 14:12:12;;;;;;;;;;;;;;;;;;5075575;28;19916;-67
2022/05/11 14:14:38;;;;;;;;;;;;;;;;;;5078408;28;19913;-67
2022/05/11 14:17:04;;;;;;;;;;;;;;;;;;5095740;28;19920;-68
2022/05/11 14:19:30;;;;;;;;;;;;;;;;;;5095998;28;19915;-67
2022/05/11 14:21:56;;;;;;;;;;;;;;;;;;5096301;28;20392;-67
2022/05/11 14:24:22;;;;;;;;;;;;;;;;;;5095635;28;19915;-67
2022/05/11 14:26:48;;;;;;;;;;;;;;;;;;5096282;28;19957;-67
2022/05/11 14:29:14;;;;;;;;;;;;;;;;;;5095198;28;19909;-67
2022/05/11 14:31:40;;;;;;;;;;;;;;;;;;5077992;28;19959;-67
2022/05/11 14:34:06;;;;;;;;;;;;;;;;;;5095514;28;19931;-67
2022/05/11 14:36:32;;;;;;;;;;;;;;;;;;5096064;28;19917;-67
2022/05/11 14:38:58;;;;;;;;;;;;;;;;;;5096027;28;19909;-67
2022/05/11 14:41:24;;;;;;;;;;;;;;;;;;5095152;28;20003;-67
2022/05/11 14:43:50;;;;;;;;;;;;;;;;;;5095180;28;19908;-67
2022/05/11 14:46:16;;;;;;;;;;;;;;;;;;5095371;28;19919;-67
2022/05/11 14:48:44;;;;;;;;;;;;;;;;;;5095646;28;19912;-67
2022/05/11 14:51:11;;;;;;;;;;;;;;;;;;5095094;28;19915;-67
2022/05/11 14:53:37;;;;;;;;;;;;;;;;;;5095732;28;19908;-67
2022/05/11 14:56:03;;;;;;;;;;;;;;;;;;5094721;28;20383;-68
2022/05/11 15:03:57;;;;;;;;;;;;;;;;;;5095351;28;20378;-68
2022/05/11 15:06:23;;;;;;;;;;;;;;;;;;5094778;28;19995;-68
2022/05/11 15:08:51;;;;;;;;;;;;;;;;;;5095449;28;19909;-68
2022/05/11 15:14:01;;;;;;;;;;;;;;;;;;5095049;28;20394;-68
2022/05/11 15:16:27;;;;;;;;;;;;;;;;;;5076361;28;19920;-66
2022/05/11 15:18:55;;;;;;;;;;;;;;;;;;5074837;28;19916;-66
2022/05/11 15:21:21;;;;;;;;;;;;;;;;;;5074251;28;20372;-65
2022/05/11 15:23:46;;;;;;;;;;;;;;;;;;5074815;28;19908;-67
2022/05/11 15:26:12;;;;;;;;;;;;;;;;;;5074030;28;19908;-66
2022/05/11 15:28:38;;;;;;;;;;;;;;;;;;5074503;28;19916;-66
2022/05/11 15:31:04;;;;;;;;;;;;;;;;;;5073734;28;19992;-68
2022/05/11 15:33:30;;;;;;;;;;;;;;;;;;5074710;28;19934;-66
2022/05/11 15:35:58;;;;;;;;;;;;;;;;;;5074594;28;20238;-66
2022/05/11 15:38:24;;;;;;;;;;;;;;;;;;5074043;28;19913;-66
2022/05/11 15:40:50;;;;;;;;;;;;;;;;;;5074350;28;20280;-66
2022/05/11 15:43:16;;;;;;;;;;;;;;;;;;5074902;28;19966;-66
2022/05/11 15:45:42;;;;;;;;;;;;;;;;;;5074887;28;20314;-66
2022/05/11 15:48:08;;;;;;;;;;;;;;;;;;5073735;28;19916;-66
2022/05/11 15:50:34;;;;;;;;;;;;;;;;;;5074322;28;20022;-66
2022/05/11 15:53:00;;;;;;;;;;;;;;;;;;5074164;28;19908;-66
2022/05/11 15:55:26;;;;;;;;;;;;;;;;;;5072463;28;19913;-66
2022/05/11 15:57:52;;;;;;;;;;;;;;;;;;5074197;28;19908;-65
2022/05/11 16:00:18;;;;;;;;;;;;;;;;;;5073428;28;20364;-66
2022/05/11 16:02:43;;;;;;;;;;;;;;;;;;5073994;28;19908;-66
2022/05/11 16:05:09;;;;;;;;;;;;;;;;;;5073370;28;20353;-66
2022/05/11 16:07:35;;;;;;;;;;;;;;;;;;5073662;28;20284;-66
2022/05/11 16:10:01;;;;;;;;;;;;;;;;;;5061537;28;20004;-67
2022/05/11 16:12:27;;;;;;;;;;;;;;;;;;5073018;28;19935;-66
2022/05/11 16:14:53;;;;;;;;;;;;;;;;;;5073524;28;19920;-65
2022/05/11 16:20:04;;;;;;;;;;;;;;;;;;5073482;28;19947;-66
2022/05/11 16:22:30;;;;;;;;;;;;;;;;;;5073011;28;20345;-65
2022/05/11 16:24:57;;;;;;;;;;;;;;;;;;5070667;28;20007;-70
2022/05/11 16:27:23;;;;;;;;;;;;;;;;;;5072084;28;19920;-66
2022/05/11 16:29:49;;;;;;;;;;;;;;;;;;5073109;28;19908;-65
2022/05/11 16:32:15;;;;;;;;;;;;;;;;;;5069192;28;19954;-66
2022/05/11 16:34:42;;;;;;;;;;;;;;;;;;5066697;28;19913;-66
2022/05/11 16:37:08;;;;;;;;;;;;;;;;;;5062081;28;19971;-67
2022/05/11 16:39:34;;;;;;;;;;;;;;;;;;5057844;28;19909;-66
2022/05/11 16:42:00;;;;;;;;;;;;;;;;;;5063710;28;19909;-65
2022/05/11 16:44:33;;;;;;;;;;;;;;;;;;5062939;28;19916;-65
2022/05/11 16:46:59;;;;;;;;;;;;;;;;;;5072823;28;19923;-66
2022/05/11 16:49:25;;;;;;;;;;;;;;;;;;5062723;28;19909;-66
2022/05/11 16:51:52;;;;;;;;;;;;;;;;;;5060771;28;19947;-66
2022/05/11 16:54:18;;;;;;;;;;;;;;;;;;5061547;28;19916;-66
2022/05/11 16:56:44;;;;;;;;;;;;;;;;;;5061844;28;19917;-67
2022/05/11 16:59:10;;;;;;;;;;;;;;;;;;5060057;28;19982;-67
2022/05/11 17:01:36;;;;;;;;;;;;;;;;;;5065755;28;19908;-73
2022/05/11 17:04:02;;;;;;;;;;;;;;;;;;5049383;28;20375;-70
2022/05/11 17:06:28;;;;;;;;;;;;;;;;;;5053510;28;19952;-65
2022/05/11 17:08:54;;;;;;;;;;;;;;;;;;5052933;28;19909;-65
2022/05/11 17:11:20;;;;;;;;;;;;;;;;;;5052328;28;20399;-65
2022/05/11 17:13:48;;;;;;;;;;;;;;;;;;5052946;28;19913;-65
2022/05/11 17:16:14;;;;;;;;;;;;;;;;;;5067976;28;19987;-65
